sensor_id;sensor_type;location;lat;lon;timestamp;P1;durP1;ratioP1;P2;durP2;ratioP2
74851;SDS011;63400;50.650;6.832;2022-12-07T00:01:08;15.27;;;5.90;;
74851;SDS011;63400;50.650;6.832;2022-12-07T00:03:34;14.40;;;5.55;;
74851;SDS011;63400;50.650;6.832;2022-12-07T00:06:02;15.35;;;5.30;;
74851;SDS011;63400;50.650;6.832;2022-12-07T00:08:28;14.93;;;6.03;;
74851;SDS011;63400;50.650;6.832;2022-12-07T00:10:55;14.07;;;5.13;;
74851;SDS011;63400;50.650;6.832;2022-12-07T00:13:20;13.75;;;4.85;;
74851;SDS011;63400;50.650;6.832;2022-12-07T00:15:45;19.58;;;7.57;;
74851;SDS011;63400;50.650;6.832;2022-12-07T00:18:11;11.70;;;5.38;;
74851;SDS011;63400;50.650;6.832;2022-12-07T00:20:36;12.57;;;5.57;;
74851;SDS011;63400;50.650;6.832;2022-12-07T00:23:02;12.60;;;5.22;;
74851;SDS011;63400;50.650;6.832;2022-12-07T00:25:27;13.68;;;5.75;;
74851;SDS011;63400;50.650;6.832;2022-12-07T00:27:53;13.85;;;5.70;;
74851;SDS011;63400;50.650;6.832;2022-12-07T00:30:21;11.80;;;4.90;;
74851;SDS011;63400;50.650;6.832;2022-12-07T00:32:47;12.38;;;5.55;;
74851;SDS011;63400;50.650;6.832;2022-12-07T00:35:12;11.40;;;4.78;;
74851;SDS011;63400;50.650;6.832;2022-12-07T00:37:38;11.60;;;5.00;;
74851;SDS011;63400;50.650;6.832;2022-12-07T00:40:04;13.98;;;5.25;;
74851;SDS011;63400;50.650;6.832;2022-12-07T00:42:30;12.55;;;4.68;;
74851;SDS011;63400;50.650;6.832;2022-12-07T00:44:55;15.80;;;6.07;;
74851;SDS011;63400;50.650;6.832;2022-12-07T00:47:21;14.88;;;6.07;;
74851;SDS011;63400;50.650;6.832;2022-12-07T00:49:46;14.55;;;5.70;;
74851;SDS011;63400;50.650;6.832;2022-12-07T00:52:11;14.75;;;6.28;;
74851;SDS011;63400;50.650;6.832;2022-12-07T00:54:37;15.38;;;5.90;;
74851;SDS011;63400;50.650;6.832;2022-12-07T00:57:02;12.70;;;5.50;;
74851;SDS011;63400;50.650;6.832;2022-12-07T00:59:28;14.57;;;5.70;;
74851;SDS011;63400;50.650;6.832;2022-12-07T01:01:53;15.52;;;6.32;;
74851;SDS011;63400;50.650;6.832;2022-12-07T01:04:19;18.38;;;6.70;;
74851;SDS011;63400;50.650;6.832;2022-12-07T01:06:44;17.38;;;6.13;;
74851;SDS011;63400;50.650;6.832;2022-12-07T01:09:10;19.23;;;6.68;;
74851;SDS011;63400;50.650;6.832;2022-12-07T01:11:35;14.52;;;6.68;;
74851;SDS011;63400;50.650;6.832;2022-12-07T01:14:01;15.70;;;6.40;;
74851;SDS011;63400;50.650;6.832;2022-12-07T01:16:27;16.08;;;7.60;;
74851;SDS011;63400;50.650;6.832;2022-12-07T01:18:54;19.02;;;6.90;;
74851;SDS011;63400;50.650;6.832;2022-12-07T01:21:21;19.38;;;8.00;;
74851;SDS011;63400;50.650;6.832;2022-12-07T01:23:53;19.33;;;7.60;;
74851;SDS011;63400;50.650;6.832;2022-12-07T01:26:20;15.48;;;6.68;;
74851;SDS011;63400;50.650;6.832;2022-12-07T01:28:47;15.35;;;5.70;;
74851;SDS011;63400;50.650;6.832;2022-12-07T01:31:16;17.23;;;6.13;;
74851;SDS011;63400;50.650;6.832;2022-12-07T01:33:45;17.88;;;5.55;;
74851;SDS011;63400;50.650;6.832;2022-12-07T01:36:21;17.83;;;6.38;;
74851;SDS011;63400;50.650;6.832;2022-12-07T01:38:53;15.27;;;6.38;;
74851;SDS011;63400;50.650;6.832;2022-12-07T01:41:21;15.60;;;6.43;;
74851;SDS011;63400;50.650;6.832;2022-12-07T01:46:35;16.40;;;7.05;;
74851;SDS011;63400;50.650;6.832;2022-12-07T01:49:01;18.48;;;7.55;;
74851;SDS011;63400;50.650;6.832;2022-12-07T01:51:27;17.55;;;6.90;;
74851;SDS011;63400;50.650;6.832;2022-12-07T01:53:53;17.90;;;6.75;;
74851;SDS011;63400;50.650;6.832;2022-12-07T01:56:20;14.70;;;6.28;;
74851;SDS011;63400;50.650;6.832;2022-12-07T01:58:47;17.35;;;6.93;;
74851;SDS011;63400;50.650;6.832;2022-12-07T02:01:13;17.23;;;7.57;;
74851;SDS011;63400;50.650;6.832;2022-12-07T02:03:42;15.45;;;7.07;;
74851;SDS011;63400;50.650;6.832;2022-12-07T02:06:09;14.65;;;6.47;;
74851;SDS011;63400;50.650;6.832;2022-12-07T02:08:36;21.45;;;7.68;;
74851;SDS011;63400;50.650;6.832;2022-12-07T02:11:02;16.00;;;7.22;;
74851;SDS011;63400;50.650;6.832;2022-12-07T02:13:30;17.67;;;7.88;;
74851;SDS011;63400;50.650;6.832;2022-12-07T02:27:45;18.33;;;6.93;;
74851;SDS011;63400;50.650;6.832;2022-12-07T02:30:13;18.52;;;7.45;;
74851;SDS011;63400;50.650;6.832;2022-12-07T02:32:42;20.95;;;8.82;;
74851;SDS011;63400;50.650;6.832;2022-12-07T02:35:22;19.25;;;8.18;;
74851;SDS011;63400;50.650;6.832;2022-12-07T02:37:57;17.30;;;7.05;;
74851;SDS011;63400;50.650;6.832;2022-12-07T02:43:07;18.40;;;7.95;;
74851;SDS011;63400;50.650;6.832;2022-12-07T02:45:35;18.15;;;7.30;;
74851;SDS011;63400;50.650;6.832;2022-12-07T02:48:02;20.27;;;7.47;;
74851;SDS011;63400;50.650;6.832;2022-12-07T02:50:28;18.10;;;7.05;;
74851;SDS011;63400;50.650;6.832;2022-12-07T02:52:53;19.70;;;8.75;;
74851;SDS011;63400;50.650;6.832;2022-12-07T02:55:19;17.48;;;7.78;;
74851;SDS011;63400;50.650;6.832;2022-12-07T03:00:44;18.98;;;6.45;;
74851;SDS011;63400;50.650;6.832;2022-12-07T03:03:14;20.23;;;7.32;;
74851;SDS011;63400;50.650;6.832;2022-12-07T03:11:06;22.20;;;7.57;;
74851;SDS011;63400;50.650;6.832;2022-12-07T03:13:39;18.90;;;9.13;;
74851;SDS011;63400;50.650;6.832;2022-12-07T03:19:13;18.73;;;8.27;;
74851;SDS011;63400;50.650;6.832;2022-12-07T03:21:44;18.58;;;7.65;;
74851;SDS011;63400;50.650;6.832;2022-12-07T03:24:17;19.70;;;8.32;;
74851;SDS011;63400;50.650;6.832;2022-12-07T03:26:46;17.70;;;7.70;;
74851;SDS011;63400;50.650;6.832;2022-12-07T03:29:17;19.38;;;9.15;;
74851;SDS011;63400;50.650;6.832;2022-12-07T03:31:46;16.92;;;7.30;;
74851;SDS011;63400;50.650;6.832;2022-12-07T03:36:47;17.08;;;6.50;;
74851;SDS011;63400;50.650;6.832;2022-12-07T03:42:09;16.23;;;7.18;;
74851;SDS011;63400;50.650;6.832;2022-12-07T03:44:35;18.38;;;7.50;;
74851;SDS011;63400;50.650;6.832;2022-12-07T03:47:02;18.50;;;8.00;;
74851;SDS011;63400;50.650;6.832;2022-12-07T03:54:38;15.48;;;6.25;;
74851;SDS011;63400;50.650;6.832;2022-12-07T03:57:05;18.73;;;8.05;;
74851;SDS011;63400;50.650;6.832;2022-12-07T03:59:32;19.02;;;6.97;;
74851;SDS011;63400;50.650;6.832;2022-12-07T04:02:01;20.27;;;7.50;;
74851;SDS011;63400;50.650;6.832;2022-12-07T04:04:27;16.98;;;7.07;;
74851;SDS011;63400;50.650;6.832;2022-12-07T04:06:53;14.82;;;6.05;;
74851;SDS011;63400;50.650;6.832;2022-12-07T04:09:18;19.83;;;7.25;;
74851;SDS011;63400;50.650;6.832;2022-12-07T04:11:44;17.02;;;7.30;;
74851;SDS011;63400;50.650;6.832;2022-12-07T04:14:09;18.02;;;6.78;;
74851;SDS011;63400;50.650;6.832;2022-12-07T04:16:47;18.02;;;6.93;;
74851;SDS011;63400;50.650;6.832;2022-12-07T04:19:14;20.63;;;7.45;;
74851;SDS011;63400;50.650;6.832;2022-12-07T04:21:41;17.95;;;6.70;;
74851;SDS011;63400;50.650;6.832;2022-12-07T04:24:07;20.05;;;7.38;;
74851;SDS011;63400;50.650;6.832;2022-12-07T04:26:32;20.17;;;7.93;;
74851;SDS011;63400;50.650;6.832;2022-12-07T04:28:58;17.98;;;6.82;;
74851;SDS011;63400;50.650;6.832;2022-12-07T04:31:23;16.00;;;6.90;;
74851;SDS011;63400;50.650;6.832;2022-12-07T04:33:49;19.20;;;7.65;;
74851;SDS011;63400;50.650;6.832;2022-12-07T04:36:14;19.58;;;7.50;;
74851;SDS011;63400;50.650;6.832;2022-12-07T04:38:40;16.75;;;7.38;;
74851;SDS011;63400;50.650;6.832;2022-12-07T04:41:05;18.67;;;8.00;;
74851;SDS011;63400;50.650;6.832;2022-12-07T04:43:32;18.08;;;8.18;;
74851;SDS011;63400;50.650;6.832;2022-12-07T04:45:58;19.85;;;7.45;;
74851;SDS011;63400;50.650;6.832;2022-12-07T04:48:23;16.90;;;7.50;;
74851;SDS011;63400;50.650;6.832;2022-12-07T04:50:49;17.20;;;6.63;;
74851;SDS011;63400;50.650;6.832;2022-12-07T04:53:17;20.90;;;7.78;;
74851;SDS011;63400;50.650;6.832;2022-12-07T04:55:43;17.25;;;7.32;;
74851;SDS011;63400;50.650;6.832;2022-12-07T04:58:09;20.38;;;6.80;;
74851;SDS011;63400;50.650;6.832;2022-12-07T05:00:34;21.23;;;8.63;;
74851;SDS011;63400;50.650;6.832;2022-12-07T05:03:00;19.55;;;7.85;;
74851;SDS011;63400;50.650;6.832;2022-12-07T05:05:25;18.60;;;7.55;;
74851;SDS011;63400;50.650;6.832;2022-12-07T05:07:50;17.52;;;7.97;;
74851;SDS011;63400;50.650;6.832;2022-12-07T05:10:16;16.58;;;7.53;;
74851;SDS011;63400;50.650;6.832;2022-12-07T05:12:41;17.48;;;7.28;;
74851;SDS011;63400;50.650;6.832;2022-12-07T05:15:07;17.63;;;7.32;;
74851;SDS011;63400;50.650;6.832;2022-12-07T05:17:33;17.30;;;7.95;;
74851;SDS011;63400;50.650;6.832;2022-12-07T05:19:58;20.33;;;7.47;;
74851;SDS011;63400;50.650;6.832;2022-12-07T05:22:23;18.95;;;8.30;;
74851;SDS011;63400;50.650;6.832;2022-12-07T05:24:53;21.70;;;8.15;;
74851;SDS011;63400;50.650;6.832;2022-12-07T05:27:21;19.33;;;7.13;;
74851;SDS011;63400;50.650;6.832;2022-12-07T05:29:46;21.77;;;7.43;;
74851;SDS011;63400;50.650;6.832;2022-12-07T05:32:12;18.25;;;7.63;;
74851;SDS011;63400;50.650;6.832;2022-12-07T05:34:37;17.60;;;6.65;;
74851;SDS011;63400;50.650;6.832;2022-12-07T05:37:03;18.35;;;6.75;;
74851;SDS011;63400;50.650;6.832;2022-12-07T05:39:28;19.88;;;7.32;;
74851;SDS011;63400;50.650;6.832;2022-12-07T05:41:53;18.65;;;6.60;;
74851;SDS011;63400;50.650;6.832;2022-12-07T05:44:37;17.95;;;6.03;;
74851;SDS011;63400;50.650;6.832;2022-12-07T05:47:03;19.60;;;7.20;;
74851;SDS011;63400;50.650;6.832;2022-12-07T05:49:29;16.30;;;6.55;;
74851;SDS011;63400;50.650;6.832;2022-12-07T05:51:55;15.63;;;6.43;;
74851;SDS011;63400;50.650;6.832;2022-12-07T05:54:20;14.55;;;6.45;;
74851;SDS011;63400;50.650;6.832;2022-12-07T05:56:45;17.40;;;6.43;;
74851;SDS011;63400;50.650;6.832;2022-12-07T05:59:11;17.65;;;6.88;;
74851;SDS011;63400;50.650;6.832;2022-12-07T06:01:58;16.85;;;6.47;;
74851;SDS011;63400;50.650;6.832;2022-12-07T06:04:26;17.67;;;6.80;;
74851;SDS011;63400;50.650;6.832;2022-12-07T06:06:54;15.50;;;5.82;;
74851;SDS011;63400;50.650;6.832;2022-12-07T06:09:21;18.33;;;6.85;;
74851;SDS011;63400;50.650;6.832;2022-12-07T06:11:47;14.13;;;6.47;;
74851;SDS011;63400;50.650;6.832;2022-12-07T06:14:31;20.83;;;7.20;;
74851;SDS011;63400;50.650;6.832;2022-12-07T06:16:57;20.10;;;6.90;;
74851;SDS011;63400;50.650;6.832;2022-12-07T06:19:23;17.00;;;6.95;;
74851;SDS011;63400;50.650;6.832;2022-12-07T06:21:49;18.17;;;6.93;;
74851;SDS011;63400;50.650;6.832;2022-12-07T06:24:14;16.48;;;7.13;;
74851;SDS011;63400;50.650;6.832;2022-12-07T06:26:41;17.45;;;6.53;;
74851;SDS011;63400;50.650;6.832;2022-12-07T06:29:07;15.70;;;5.78;;
74851;SDS011;63400;50.650;6.832;2022-12-07T06:31:33;18.60;;;6.15;;
74851;SDS011;63400;50.650;6.832;2022-12-07T06:33:59;14.07;;;5.72;;
74851;SDS011;63400;50.650;6.832;2022-12-07T06:36:29;17.27;;;5.80;;
74851;SDS011;63400;50.650;6.832;2022-12-07T06:38:54;16.25;;;6.25;;
74851;SDS011;63400;50.650;6.832;2022-12-07T06:41:20;17.73;;;6.40;;
74851;SDS011;63400;50.650;6.832;2022-12-07T06:43:46;19.83;;;7.50;;
74851;SDS011;63400;50.650;6.832;2022-12-07T06:46:16;15.02;;;6.43;;
74851;SDS011;63400;50.650;6.832;2022-12-07T06:48:42;18.95;;;6.70;;
74851;SDS011;63400;50.650;6.832;2022-12-07T06:51:08;16.13;;;6.18;;
74851;SDS011;63400;50.650;6.832;2022-12-07T06:53:34;15.00;;;6.18;;
74851;SDS011;63400;50.650;6.832;2022-12-07T06:56:01;15.60;;;6.38;;
74851;SDS011;63400;50.650;6.832;2022-12-07T06:58:26;15.35;;;5.68;;
74851;SDS011;63400;50.650;6.832;2022-12-07T07:00:52;14.95;;;5.93;;
74851;SDS011;63400;50.650;6.832;2022-12-07T07:03:18;15.13;;;5.85;;
74851;SDS011;63400;50.650;6.832;2022-12-07T07:05:44;16.75;;;5.90;;
74851;SDS011;63400;50.650;6.832;2022-12-07T07:08:10;18.10;;;6.95;;
74851;SDS011;63400;50.650;6.832;2022-12-07T07:10:36;20.08;;;7.05;;
74851;SDS011;63400;50.650;6.832;2022-12-07T07:13:02;15.80;;;6.88;;
74851;SDS011;63400;50.650;6.832;2022-12-07T07:15:31;16.90;;;6.70;;
74851;SDS011;63400;50.650;6.832;2022-12-07T07:17:58;16.05;;;5.95;;
74851;SDS011;63400;50.650;6.832;2022-12-07T07:20:24;15.68;;;6.32;;
74851;SDS011;63400;50.650;6.832;2022-12-07T07:22:50;16.08;;;6.47;;
74851;SDS011;63400;50.650;6.832;2022-12-07T07:25:16;16.33;;;6.95;;
74851;SDS011;63400;50.650;6.832;2022-12-07T07:27:44;15.85;;;6.68;;
74851;SDS011;63400;50.650;6.832;2022-12-07T07:30:10;19.10;;;7.13;;
74851;SDS011;63400;50.650;6.832;2022-12-07T07:32:39;16.92;;;7.13;;
74851;SDS011;63400;50.650;6.832;2022-12-07T07:35:05;17.75;;;6.95;;
74851;SDS011;63400;50.650;6.832;2022-12-07T07:37:31;16.58;;;6.90;;
74851;SDS011;63400;50.650;6.832;2022-12-07T07:39:57;18.02;;;5.90;;
74851;SDS011;63400;50.650;6.832;2022-12-07T07:42:23;16.15;;;6.25;;
74851;SDS011;63400;50.650;6.832;2022-12-07T07:44:49;15.32;;;6.15;;
74851;SDS011;63400;50.650;6.832;2022-12-07T07:47:14;16.02;;;6.32;;
74851;SDS011;63400;50.650;6.832;2022-12-07T07:49:40;13.05;;;5.90;;
74851;SDS011;63400;50.650;6.832;2022-12-07T07:52:06;15.40;;;5.90;;
74851;SDS011;63400;50.650;6.832;2022-12-07T07:54:32;16.88;;;4.97;;
74851;SDS011;63400;50.650;6.832;2022-12-07T07:56:57;16.38;;;5.55;;
74851;SDS011;63400;50.650;6.832;2022-12-07T07:59:24;12.27;;;4.93;;
74851;SDS011;63400;50.650;6.832;2022-12-07T08:01:50;15.77;;;5.78;;
74851;SDS011;63400;50.650;6.832;2022-12-07T08:04:16;17.33;;;6.70;;
74851;SDS011;63400;50.650;6.832;2022-12-07T08:06:42;13.70;;;5.78;;
74851;SDS011;63400;50.650;6.832;2022-12-07T08:09:08;13.10;;;5.25;;
74851;SDS011;63400;50.650;6.832;2022-12-07T08:11:35;16.17;;;6.03;;
74851;SDS011;63400;50.650;6.832;2022-12-07T08:14:01;15.20;;;5.82;;
74851;SDS011;63400;50.650;6.832;2022-12-07T08:16:29;15.80;;;5.38;;
74851;SDS011;63400;50.650;6.832;2022-12-07T08:18:55;14.70;;;5.63;;
74851;SDS011;63400;50.650;6.832;2022-12-07T08:21:21;16.23;;;5.55;;
74851;SDS011;63400;50.650;6.832;2022-12-07T08:23:47;14.70;;;5.47;;
74851;SDS011;63400;50.650;6.832;2022-12-07T08:26:14;14.90;;;5.25;;
74851;SDS011;63400;50.650;6.832;2022-12-07T08:28:41;12.68;;;5.05;;
74851;SDS011;63400;50.650;6.832;2022-12-07T08:31:08;14.75;;;5.25;;
74851;SDS011;63400;50.650;6.832;2022-12-07T08:33:36;14.38;;;5.72;;
74851;SDS011;63400;50.650;6.832;2022-12-07T08:36:04;15.48;;;5.82;;
74851;SDS011;63400;50.650;6.832;2022-12-07T08:38:37;16.75;;;4.93;;
74851;SDS011;63400;50.650;6.832;2022-12-07T08:41:03;13.82;;;5.78;;
74851;SDS011;63400;50.650;6.832;2022-12-07T08:43:30;15.65;;;5.97;;
74851;SDS011;63400;50.650;6.832;2022-12-07T08:46:04;25.98;;;8.55;;
74851;SDS011;63400;50.650;6.832;2022-12-07T08:48:37;26.38;;;8.88;;
74851;SDS011;63400;50.650;6.832;2022-12-07T08:51:05;17.80;;;6.22;;
74851;SDS011;63400;50.650;6.832;2022-12-07T08:53:31;17.48;;;6.50;;
74851;SDS011;63400;50.650;6.832;2022-12-07T08:55:58;13.75;;;4.80;;
74851;SDS011;63400;50.650;6.832;2022-12-07T08:58:25;10.38;;;3.60;;
74851;SDS011;63400;50.650;6.832;2022-12-07T09:00:51;11.07;;;4.43;;
74851;SDS011;63400;50.650;6.832;2022-12-07T09:03:17;9.93;;;3.95;;
74851;SDS011;63400;50.650;6.832;2022-12-07T09:05:42;9.05;;;4.15;;
74851;SDS011;63400;50.650;6.832;2022-12-07T09:08:08;12.32;;;3.75;;
74851;SDS011;63400;50.650;6.832;2022-12-07T09:10:34;9.70;;;4.22;;
74851;SDS011;63400;50.650;6.832;2022-12-07T09:13:01;10.88;;;4.03;;
74851;SDS011;63400;50.650;6.832;2022-12-07T09:17:56;10.10;;;2.83;;
74851;SDS011;63400;50.650;6.832;2022-12-07T09:20:22;10.93;;;3.88;;
74851;SDS011;63400;50.650;6.832;2022-12-07T09:22:49;7.65;;;2.85;;
74851;SDS011;63400;50.650;6.832;2022-12-07T09:25:16;9.90;;;3.08;;
74851;SDS011;63400;50.650;6.832;2022-12-07T09:27:42;9.23;;;3.55;;
74851;SDS011;63400;50.650;6.832;2022-12-07T09:30:08;8.43;;;2.72;;
74851;SDS011;63400;50.650;6.832;2022-12-07T09:32:34;8.63;;;2.88;;
74851;SDS011;63400;50.650;6.832;2022-12-07T09:35:02;9.18;;;3.08;;
74851;SDS011;63400;50.650;6.832;2022-12-07T09:37:28;8.65;;;2.58;;
74851;SDS011;63400;50.650;6.832;2022-12-07T09:39:54;8.32;;;2.58;;
74851;SDS011;63400;50.650;6.832;2022-12-07T09:42:30;6.32;;;2.65;;
74851;SDS011;63400;50.650;6.832;2022-12-07T09:45:17;10.30;;;2.90;;
74851;SDS011;63400;50.650;6.832;2022-12-07T09:47:49;7.15;;;3.03;;
74851;SDS011;63400;50.650;6.832;2022-12-07T09:50:23;7.43;;;2.65;;
74851;SDS011;63400;50.650;6.832;2022-12-07T09:52:53;6.38;;;2.40;;
74851;SDS011;63400;50.650;6.832;2022-12-07T09:55:26;8.18;;;2.80;;
74851;SDS011;63400;50.650;6.832;2022-12-07T09:57:54;9.30;;;2.72;;
74851;SDS011;63400;50.650;6.832;2022-12-07T10:00:22;9.82;;;3.10;;
74851;SDS011;63400;50.650;6.832;2022-12-07T10:02:54;5.97;;;2.30;;
74851;SDS011;63400;50.650;6.832;2022-12-07T10:05:29;8.98;;;3.38;;
74851;SDS011;63400;50.650;6.832;2022-12-07T10:08:11;8.07;;;2.40;;
74851;SDS011;63400;50.650;6.832;2022-12-07T10:10:40;9.00;;;2.58;;
74851;SDS011;63400;50.650;6.832;2022-12-07T10:13:10;7.57;;;3.40;;
74851;SDS011;63400;50.650;6.832;2022-12-07T10:15:54;9.50;;;3.30;;
74851;SDS011;63400;50.650;6.832;2022-12-07T10:18:41;7.20;;;2.47;;
74851;SDS011;63400;50.650;6.832;2022-12-07T10:21:22;8.73;;;3.17;;
74851;SDS011;63400;50.650;6.832;2022-12-07T10:24:12;6.95;;;2.63;;
74851;SDS011;63400;50.650;6.832;2022-12-07T10:31:59;8.00;;;3.00;;
74851;SDS011;63400;50.650;6.832;2022-12-07T10:34:28;7.47;;;3.10;;
74851;SDS011;63400;50.650;6.832;2022-12-07T10:39:50;7.50;;;2.38;;
74851;SDS011;63400;50.650;6.832;2022-12-07T10:44:50;10.63;;;2.47;;
74851;SDS011;63400;50.650;6.832;2022-12-07T10:47:39;6.47;;;2.10;;
74851;SDS011;63400;50.650;6.832;2022-12-07T10:53:14;7.60;;;2.13;;
74851;SDS011;63400;50.650;6.832;2022-12-07T10:59:29;4.82;;;1.45;;
74851;SDS011;63400;50.650;6.832;2022-12-07T11:12:56;4.43;;;1.63;;
74851;SDS011;63400;50.650;6.832;2022-12-07T11:15:53;5.65;;;1.65;;
74851;SDS011;63400;50.650;6.832;2022-12-07T11:18:29;5.20;;;1.85;;
74851;SDS011;63400;50.650;6.832;2022-12-07T11:29:18;6.65;;;1.33;;
74851;SDS011;63400;50.650;6.832;2022-12-07T11:43:01;7.78;;;1.98;;
74851;SDS011;63400;50.650;6.832;2022-12-07T11:45:31;8.63;;;2.50;;
74851;SDS011;63400;50.650;6.832;2022-12-07T11:56:21;6.30;;;1.98;;
74851;SDS011;63400;50.650;6.832;2022-12-07T11:59:52;5.15;;;1.70;;
74851;SDS011;63400;50.650;6.832;2022-12-07T12:02:12;6.97;;;2.00;;
74851;SDS011;63400;50.650;6.832;2022-12-07T12:04:58;6.93;;;2.22;;
74851;SDS011;63400;50.650;6.832;2022-12-07T12:07:27;9.15;;;2.28;;
74851;SDS011;63400;50.650;6.832;2022-12-07T12:15:41;8.90;;;2.97;;
74851;SDS011;63400;50.650;6.832;2022-12-07T12:18:14;9.90;;;2.20;;
74851;SDS011;63400;50.650;6.832;2022-12-07T12:20:54;8.23;;;1.83;;
74851;SDS011;63400;50.650;6.832;2022-12-07T12:26:18;8.50;;;2.15;;
74851;SDS011;63400;50.650;6.832;2022-12-07T12:31:28;8.38;;;3.20;;
74851;SDS011;63400;50.650;6.832;2022-12-07T12:33:59;14.38;;;3.88;;
74851;SDS011;63400;50.650;6.832;2022-12-07T12:47:03;6.85;;;2.55;;
74851;SDS011;63400;50.650;6.832;2022-12-07T12:49:43;8.25;;;2.85;;
74851;SDS011;63400;50.650;6.832;2022-12-07T12:55:21;7.40;;;1.73;;
74851;SDS011;63400;50.650;6.832;2022-12-07T12:57:49;8.63;;;2.50;;
74851;SDS011;63400;50.650;6.832;2022-12-07T13:00:46;7.63;;;3.00;;
74851;SDS011;63400;50.650;6.832;2022-12-07T13:03:21;8.38;;;2.88;;
74851;SDS011;63400;50.650;6.832;2022-12-07T13:06:55;8.10;;;2.53;;
74851;SDS011;63400;50.650;6.832;2022-12-07T13:08:50;8.75;;;2.22;;
74851;SDS011;63400;50.650;6.832;2022-12-07T13:11:20;8.70;;;2.42;;
74851;SDS011;63400;50.650;6.832;2022-12-07T13:14:35;7.47;;;2.38;;
74851;SDS011;63400;50.650;6.832;2022-12-07T13:17:12;8.88;;;2.65;;
74851;SDS011;63400;50.650;6.832;2022-12-07T13:19:58;6.25;;;2.42;;
74851;SDS011;63400;50.650;6.832;2022-12-07T13:27:40;8.77;;;3.03;;
74851;SDS011;63400;50.650;6.832;2022-12-07T13:30:17;10.65;;;3.03;;
74851;SDS011;63400;50.650;6.832;2022-12-07T13:32:54;8.55;;;3.30;;
74851;SDS011;63400;50.650;6.832;2022-12-07T13:35:28;8.00;;;3.22;;
74851;SDS011;63400;50.650;6.832;2022-12-07T13:37:54;6.55;;;2.63;;
74851;SDS011;63400;50.650;6.832;2022-12-07T13:40:21;7.10;;;2.85;;
74851;SDS011;63400;50.650;6.832;2022-12-07T13:42:47;10.60;;;3.10;;
74851;SDS011;63400;50.650;6.832;2022-12-07T13:45:26;7.32;;;2.47;;
74851;SDS011;63400;50.650;6.832;2022-12-07T13:50:58;8.77;;;2.92;;
74851;SDS011;63400;50.650;6.832;2022-12-07T13:53:25;7.18;;;2.72;;
74851;SDS011;63400;50.650;6.832;2022-12-07T13:55:55;6.45;;;2.47;;
74851;SDS011;63400;50.650;6.832;2022-12-07T13:58:22;8.75;;;2.72;;
74851;SDS011;63400;50.650;6.832;2022-12-07T14:00:50;7.55;;;2.97;;
74851;SDS011;63400;50.650;6.832;2022-12-07T14:05:42;15.10;;;4.10;;
74851;SDS011;63400;50.650;6.832;2022-12-07T14:13:32;9.15;;;2.92;;
74851;SDS011;63400;50.650;6.832;2022-12-07T14:16:28;8.05;;;3.00;;
74851;SDS011;63400;50.650;6.832;2022-12-07T14:18:56;8.63;;;2.90;;
74851;SDS011;63400;50.650;6.832;2022-12-07T14:21:24;8.90;;;3.50;;
74851;SDS011;63400;50.650;6.832;2022-12-07T14:26:39;7.63;;;3.53;;
74851;SDS011;63400;50.650;6.832;2022-12-07T14:31:49;12.75;;;5.00;;
74851;SDS011;63400;50.650;6.832;2022-12-07T14:34:15;11.73;;;5.03;;
74851;SDS011;63400;50.650;6.832;2022-12-07T14:36:40;9.23;;;3.35;;
74851;SDS011;63400;50.650;6.832;2022-12-07T14:39:06;8.90;;;3.50;;
74851;SDS011;63400;50.650;6.832;2022-12-07T14:41:31;8.73;;;4.28;;
74851;SDS011;63400;50.650;6.832;2022-12-07T14:44:15;8.95;;;3.55;;
74851;SDS011;63400;50.650;6.832;2022-12-07T14:46:41;7.00;;;3.15;;
74851;SDS011;63400;50.650;6.832;2022-12-07T14:49:06;8.07;;;2.80;;
74851;SDS011;63400;50.650;6.832;2022-12-07T14:51:32;9.50;;;3.35;;
74851;SDS011;63400;50.650;6.832;2022-12-07T14:53:58;11.60;;;3.97;;
74851;SDS011;63400;50.650;6.832;2022-12-07T14:56:24;9.73;;;3.55;;
74851;SDS011;63400;50.650;6.832;2022-12-07T14:58:50;9.88;;;3.47;;
74851;SDS011;63400;50.650;6.832;2022-12-07T15:01:16;9.07;;;3.38;;
74851;SDS011;63400;50.650;6.832;2022-12-07T15:03:41;10.48;;;3.08;;
74851;SDS011;63400;50.650;6.832;2022-12-07T15:06:07;6.40;;;2.78;;
74851;SDS011;63400;50.650;6.832;2022-12-07T15:08:32;8.85;;;2.85;;
74851;SDS011;63400;50.650;6.832;2022-12-07T15:10:58;10.60;;;2.28;;
74851;SDS011;63400;50.650;6.832;2022-12-07T15:13:24;5.18;;;1.65;;
74851;SDS011;63400;50.650;6.832;2022-12-07T15:16:18;7.15;;;2.00;;
74851;SDS011;63400;50.650;6.832;2022-12-07T15:18:44;10.43;;;3.15;;
74851;SDS011;63400;50.650;6.832;2022-12-07T15:21:13;8.95;;;3.03;;
74851;SDS011;63400;50.650;6.832;2022-12-07T15:23:40;8.30;;;3.22;;
74851;SDS011;63400;50.650;6.832;2022-12-07T15:26:07;10.30;;;4.03;;
74851;SDS011;63400;50.650;6.832;2022-12-07T15:28:33;9.98;;;3.10;;
74851;SDS011;63400;50.650;6.832;2022-12-07T15:30:59;7.75;;;3.00;;
74851;SDS011;63400;50.650;6.832;2022-12-07T15:33:24;8.35;;;2.80;;
74851;SDS011;63400;50.650;6.832;2022-12-07T15:35:50;9.98;;;2.72;;
74851;SDS011;63400;50.650;6.832;2022-12-07T15:38:15;8.85;;;3.30;;
74851;SDS011;63400;50.650;6.832;2022-12-07T15:40:41;8.98;;;3.63;;
74851;SDS011;63400;50.650;6.832;2022-12-07T15:43:08;9.80;;;3.95;;
74851;SDS011;63400;50.650;6.832;2022-12-07T15:45:54;11.07;;;4.47;;
74851;SDS011;63400;50.650;6.832;2022-12-07T15:48:20;10.60;;;4.35;;
74851;SDS011;63400;50.650;6.832;2022-12-07T15:50:45;10.95;;;4.93;;
74851;SDS011;63400;50.650;6.832;2022-12-07T15:53:11;11.82;;;3.72;;
74851;SDS011;63400;50.650;6.832;2022-12-07T15:55:38;9.02;;;3.80;;
74851;SDS011;63400;50.650;6.832;2022-12-07T15:58:04;9.25;;;3.47;;
74851;SDS011;63400;50.650;6.832;2022-12-07T16:00:30;8.52;;;3.70;;
74851;SDS011;63400;50.650;6.832;2022-12-07T16:02:55;8.85;;;3.03;;
74851;SDS011;63400;50.650;6.832;2022-12-07T16:05:21;12.10;;;4.70;;
74851;SDS011;63400;50.650;6.832;2022-12-07T16:07:46;7.75;;;3.60;;
74851;SDS011;63400;50.650;6.832;2022-12-07T16:10:12;5.45;;;2.45;;
74851;SDS011;63400;50.650;6.832;2022-12-07T16:12:38;9.85;;;3.05;;
74851;SDS011;63400;50.650;6.832;2022-12-07T16:15:03;10.88;;;3.50;;
74851;SDS011;63400;50.650;6.832;2022-12-07T16:17:30;9.95;;;4.10;;
74851;SDS011;63400;50.650;6.832;2022-12-07T16:19:56;9.65;;;3.53;;
74851;SDS011;63400;50.650;6.832;2022-12-07T16:22:24;11.98;;;4.20;;
74851;SDS011;63400;50.650;6.832;2022-12-07T16:24:50;11.18;;;3.97;;
74851;SDS011;63400;50.650;6.832;2022-12-07T16:27:15;11.18;;;5.22;;
74851;SDS011;63400;50.650;6.832;2022-12-07T16:29:41;12.32;;;5.57;;
74851;SDS011;63400;50.650;6.832;2022-12-07T16:32:09;7.90;;;3.97;;
74851;SDS011;63400;50.650;6.832;2022-12-07T16:34:37;17.05;;;5.57;;
74851;SDS011;63400;50.650;6.832;2022-12-07T16:37:02;11.05;;;4.82;;
74851;SDS011;63400;50.650;6.832;2022-12-07T16:39:27;13.25;;;5.53;;
74851;SDS011;63400;50.650;6.832;2022-12-07T16:41:53;15.15;;;6.28;;
74851;SDS011;63400;50.650;6.832;2022-12-07T16:44:18;10.98;;;4.88;;
74851;SDS011;63400;50.650;6.832;2022-12-07T16:46:44;11.38;;;4.10;;
74851;SDS011;63400;50.650;6.832;2022-12-07T16:49:13;10.93;;;4.20;;
74851;SDS011;63400;50.650;6.832;2022-12-07T16:51:39;11.75;;;3.72;;
74851;SDS011;63400;50.650;6.832;2022-12-07T16:54:08;13.15;;;3.70;;
74851;SDS011;63400;50.650;6.832;2022-12-07T16:56:35;10.02;;;3.38;;
74851;SDS011;63400;50.650;6.832;2022-12-07T16:59:00;8.10;;;3.17;;
74851;SDS011;63400;50.650;6.832;2022-12-07T17:01:26;9.15;;;3.17;;
74851;SDS011;63400;50.650;6.832;2022-12-07T17:03:54;7.32;;;3.28;;
74851;SDS011;63400;50.650;6.832;2022-12-07T17:06:22;7.25;;;3.15;;
74851;SDS011;63400;50.650;6.832;2022-12-07T17:08:49;10.85;;;3.72;;
74851;SDS011;63400;50.650;6.832;2022-12-07T17:11:17;12.73;;;3.30;;